Time,TemperatureF,DewpointF,PressureIn,WindDirection,WindDirectionDegrees,WindSpeedMPH,WindSpeedGustMPH,Humidity,HourlyPrecipIn,Conditions,Clouds,dailyrainin,SoftwareType,DateUTC
2013-03-07 00:02:00,32.0,28.0,30.13,WSW,247,0.0,1.0,85,0.00,,,0.00,,2013-03-07 05:02:00,
2013-03-07 00:12:00,32.0,28.0,30.13,WSW,247,0.0,1.0,85,0.00,,,0.00,,2013-03-07 05:12:00,
2013-03-07 00:22:00,32.0,28.0,30.14,WSW,248,0.0,1.0,85,0.00,,,0.00,,2013-03-07 05:22:00,
2013-03-07 00:32:00,31.0,27.0,30.14,WSW,248,0.0,0.0,86,0.00,,,0.00,,2013-03-07 05:32:00,
2013-03-07 00:42:00,31.0,27.0,30.14,WSW,248,0.0,0.0,86,0.00,,,0.00,,2013-03-07 05:42:00,
2013-03-07 00:52:00,31.0,28.0,30.14,WSW,248,1.0,1.0,87,0.00,,,0.00,,2013-03-07 05:52:00,
2013-03-07 01:01:00,31.0,28.0,30.14,WSW,248,0.0,0.0,88,0.00,,,0.00,,2013-03-07 06:01:00,
2013-03-07 01:11:00,31.0,28.0,30.14,WSW,248,0.0,0.0,88,0.00,,,0.00,,2013-03-07 06:11:00,
2013-03-07 01:21:00,31.0,28.0,30.15,WSW,248,0.0,1.0,88,0.00,,,0.00,,2013-03-07 06:21:00,
2013-03-07 01:32:00,31.0,28.0,30.16,WSW,247,0.0,1.0,87,0.00,,,0.00,,2013-03-07 06:32:00,
2013-03-07 01:42:00,31.0,28.0,30.16,WSW,247,0.0,1.0,87,0.00,,,0.00,,2013-03-07 06:42:00,
2013-03-07 01:52:00,31.0,28.0,30.15,WSW,248,0.0,0.0,88,0.00,,,0.00,,2013-03-07 06:52:00,
2013-03-07 02:01:00,30.0,27.0,30.16,WSW,248,0.0,0.0,88,0.00,,,0.00,,2013-03-07 07:01:00,
2013-03-07 02:11:00,30.0,27.0,30.16,WSW,248,0.0,0.0,88,0.00,,,0.00,,2013-03-07 07:11:00,
2013-03-07 02:22:00,30.0,27.0,30.16,WSW,248,0.0,0.0,89,0.00,,,0.00,,2013-03-07 07:22:00,
2013-03-07 02:32:00,29.0,26.0,30.16,WSW,248,0.0,0.0,89,0.00,,,0.00,,2013-03-07 07:32:00,
2013-03-07 02:43:00,29.0,26.0,30.16,WSW,248,0.0,0.0,89,0.00,,,0.00,,2013-03-07 07:43:00,
2013-03-07 02:53:00,29.0,26.0,30.16,WSW,248,0.0,0.0,90,0.00,,,0.00,,2013-03-07 07:53:00,
2013-03-07 03:03:00,29.0,26.0,30.17,WSW,248,0.0,0.0,90,0.00,,,0.00,,2013-03-07 08:03:00,
2013-03-07 03:12:00,29.0,26.0,30.17,WSW,248,0.0,0.0,90,0.00,,,0.00,,2013-03-07 08:12:00,
2013-03-07 03:23:00,29.0,26.0,30.17,WSW,248,0.0,0.0,90,0.00,,,0.00,,2013-03-07 08:23:00,
2013-03-07 03:33:00,29.0,27.0,30.16,WSW,248,0.0,0.0,91,0.00,,,0.00,,2013-03-07 08:33:00,
2013-03-07 03:44:00,29.0,27.0,30.16,WSW,248,0.0,0.0,91,0.00,,,0.00,,2013-03-07 08:44:00,
2013-03-07 03:54:00,29.0,27.0,30.16,WSW,248,0.0,0.0,91,0.00,,,0.00,,2013-03-07 08:54:00,
2013-03-07 04:03:00,28.0,26.0,30.16,WSW,248,0.0,0.0,91,0.00,,,0.00,,2013-03-07 09:03:00,
2013-03-07 04:13:00,28.0,26.0,30.16,WSW,248,0.0,0.0,91,0.00,,,0.00,,2013-03-07 09:13:00,
2013-03-07 04:23:00,28.0,26.0,30.17,WSW,248,0.0,0.0,91,0.00,,,0.00,,2013-03-07 09:23:00,
2013-03-07 04:33:00,28.0,26.0,30.17,WSW,248,0.0,0.0,92,0.00,,,0.00,,2013-03-07 09:33:00,
2013-03-07 04:43:00,28.0,26.0,30.17,WSW,248,0.0,0.0,92,0.00,,,0.00,,2013-03-07 09:43:00,
2013-03-07 04:53:00,28.0,26.0,30.16,WSW,248,0.0,0.0,91,0.00,,,0.00,,2013-03-07 09:53:00,
2013-03-07 05:03:00,27.0,25.0,30.17,WSW,248,0.0,0.0,92,0.00,,,0.00,,2013-03-07 10:03:00,
2013-03-07 05:13:00,27.0,25.0,30.17,WSW,248,0.0,0.0,92,0.00,,,0.00,,2013-03-07 10:13:00,
2013-03-07 05:23:00,27.0,25.0,30.18,WSW,248,0.0,0.0,92,0.00,,,0.00,,2013-03-07 10:23:00,
2013-03-07 05:33:00,27.0,25.0,30.18,WSW,248,0.0,0.0,92,0.00,,,0.00,,2013-03-07 10:33:00,
2013-03-07 05:42:00,27.0,25.0,30.18,WSW,248,0.0,0.0,92,0.00,,,0.00,,2013-03-07 10:42:00,
2013-03-07 05:53:00,27.0,25.0,30.19,WSW,248,0.0,0.0,93,0.00,,,0.00,,2013-03-07 10:53:00,
2013-03-07 06:03:00,27.0,25.0,30.20,WSW,248,0.0,0.0,93,0.00,,,0.00,,2013-03-07 11:03:00,
2013-03-07 06:12:00,27.0,25.0,30.20,WSW,248,0.0,0.0,93,0.00,,,0.00,,2013-03-07 11:12:00,
2013-03-07 06:23:00,27.0,25.0,30.21,WSW,248,0.0,0.0,93,0.00,,,0.00,,2013-03-07 11:23:00,
2013-03-07 06:33:00,27.0,25.0,30.21,WSW,248,0.0,0.0,93,0.00,,,0.00,,2013-03-07 11:33:00,
2013-03-07 06:43:00,27.0,25.0,30.21,WSW,248,0.0,0.0,93,0.00,,,0.00,,2013-03-07 11:43:00,
2013-03-07 06:54:00,27.0,25.0,30.22,WSW,248,0.0,0.0,93,0.00,,,0.00,,2013-03-07 11:54:00,
2013-03-07 07:03:00,27.0,25.0,30.22,WSW,248,0.0,0.0,93,0.00,,,0.00,,2013-03-07 12:03:00,
2013-03-07 07:12:00,27.0,25.0,30.22,WSW,248,0.0,0.0,93,0.00,,,0.00,,2013-03-07 12:12:00,
2013-03-07 07:23:00,27.0,25.0,30.23,WSW,248,0.0,0.0,93,0.00,,,0.00,,2013-03-07 12:23:00,
2013-03-07 07:33:00,27.0,25.0,30.24,WSW,248,0.0,0.0,93,0.00,,,0.00,,2013-03-07 12:33:00,
2013-03-07 07:43:00,27.0,25.0,30.24,WSW,248,0.0,0.0,93,0.00,,,0.00,,2013-03-07 12:43:00,
2013-03-07 07:53:00,28.0,27.0,30.24,WSW,248,0.0,0.0,94,0.00,,,0.00,,2013-03-07 12:53:00,
2013-03-07 08:03:00,29.0,27.0,30.24,WSW,248,0.0,0.0,94,0.00,,,0.00,,2013-03-07 13:03:00,
2013-03-07 08:12:00,29.0,27.0,30.24,WSW,248,0.0,0.0,94,0.00,,,0.00,,2013-03-07 13:12:00,
2013-03-07 08:23:00,30.0,28.0,30.25,WSW,248,0.0,0.0,93,0.00,,,0.00,,2013-03-07 13:23:00,
2013-03-07 08:32:00,33.0,31.0,30.25,NNW,335,0.0,0.0,92,0.00,,,0.00,,2013-03-07 13:32:00,
2013-03-07 08:42:00,33.0,31.0,30.25,NNW,335,0.0,0.0,92,0.00,,,0.00,,2013-03-07 13:42:00,
2013-03-07 08:53:00,37.0,32.0,30.24,ENE,67,1.0,3.0,81,0.00,,,0.00,,2013-03-07 13:53:00,
2013-03-07 09:02:00,40.0,32.0,30.25,East,86,2.0,4.0,73,0.00,,,0.00,,2013-03-07 14:02:00,
2013-03-07 09:12:00,40.0,32.0,30.25,East,86,2.0,4.0,73,0.00,,,0.00,,2013-03-07 14:12:00,
2013-03-07 09:23:00,42.0,31.0,30.26,North,6,2.0,6.0,66,0.00,,,0.00,,2013-03-07 14:23:00,
2013-03-07 09:33:00,43.0,30.0,30.25,East,100,3.0,5.0,61,0.00,,,0.00,,2013-03-07 14:33:00,
2013-03-07 09:42:00,43.0,30.0,30.25,East,100,3.0,5.0,61,0.00,,,0.00,,2013-03-07 14:42:00,
2013-03-07 09:54:00,45.0,32.0,30.25,ENE,71,3.0,7.0,59,0.00,,,0.00,,2013-03-07 14:54:00,
2013-03-07 10:03:00,46.0,32.0,30.25,ENE,65,3.0,6.0,58,0.00,,,0.00,,2013-03-07 15:03:00,
2013-03-07 10:12:00,46.0,32.0,30.25,ENE,65,3.0,6.0,58,0.00,,,0.00,,2013-03-07 15:12:00,
2013-03-07 10:32:00,48.0,32.0,30.24,ENE,66,2.0,7.0,53,0.00,,,0.00,,2013-03-07 15:32:00,
2013-03-07 10:42:00,48.0,32.0,30.24,ENE,66,2.0,7.0,53,0.00,,,0.00,,2013-03-07 15:42:00,
2013-03-07 10:53:00,49.0,32.0,30.24,NNW,342,1.0,5.0,52,0.00,,,0.00,,2013-03-07 15:53:00,
2013-03-07 11:02:00,50.0,32.0,30.24,NNW,347,2.0,4.0,50,0.00,,,0.00,,2013-03-07 16:02:00,
2013-03-07 11:13:00,50.0,32.0,30.24,NNW,347,2.0,4.0,50,0.00,,,0.00,,2013-03-07 16:13:00,
2013-03-07 11:23:00,50.0,32.0,30.23,East,92,4.0,6.0,49,0.00,,,0.00,,2013-03-07 16:23:00,
2013-03-07 11:33:00,51.0,32.0,30.23,WNW,300,2.0,4.0,48,0.00,,,0.00,,2013-03-07 16:33:00,
2013-03-07 11:43:00,51.0,32.0,30.23,WNW,300,2.0,4.0,48,0.00,,,0.00,,2013-03-07 16:43:00,
2013-03-07 11:53:00,51.0,32.0,30.23,NNW,347,1.0,6.0,48,0.00,,,0.00,,2013-03-07 16:53:00,
2013-03-07 12:02:00,53.0,32.0,30.22,SW,221,2.0,3.0,45,0.00,,,0.00,,2013-03-07 17:02:00,
2013-03-07 12:12:00,53.0,32.0,30.22,SW,221,2.0,3.0,45,0.00,,,0.00,,2013-03-07 17:12:00,
2013-03-07 12:23:00,54.0,32.0,30.21,NNE,23,3.0,6.0,43,0.00,,,0.00,,2013-03-07 17:23:00,
2013-03-07 12:33:00,55.0,33.0,30.21,NE,48,1.0,5.0,43,0.00,,,0.00,,2013-03-07 17:33:00,
2013-03-07 12:43:00,55.0,33.0,30.21,NE,48,1.0,5.0,43,0.00,,,0.00,,2013-03-07 17:43:00,
2013-03-07 12:54:00,56.0,33.0,30.20,NNW,346,2.0,5.0,41,0.00,,,0.00,,2013-03-07 17:54:00,
2013-03-07 13:04:00,56.0,31.0,30.19,WSW,248,2.0,4.0,39,0.00,,,0.00,,2013-03-07 18:04:00,
2013-03-07 13:12:00,56.0,31.0,30.19,WSW,248,2.0,4.0,39,0.00,,,0.00,,2013-03-07 18:12:00,
2013-03-07 13:22:00,57.0,33.0,30.18,ENE,61,2.0,5.0,40,0.00,,,0.00,,2013-03-07 18:22:00,
2013-03-07 13:32:00,58.0,32.0,30.17,SSW,205,2.0,4.0,37,0.00,,,0.00,,2013-03-07 18:32:00,
2013-03-07 13:42:00,58.0,32.0,30.17,SSW,205,2.0,4.0,37,0.00,,,0.00,,2013-03-07 18:42:00,
2013-03-07 13:53:00,58.0,33.0,30.16,North,353,3.0,4.0,39,0.00,,,0.00,,2013-03-07 18:53:00,
2013-03-07 14:03:00,59.0,33.0,30.16,ENE,76,2.0,8.0,37,0.00,,,0.00,,2013-03-07 19:03:00,
2013-03-07 14:12:00,59.0,33.0,30.16,ENE,76,2.0,8.0,37,0.00,,,0.00,,2013-03-07 19:12:00,
2013-03-07 14:23:00,59.0,33.0,30.16,NW,323,1.0,8.0,37,0.00,,,0.00,,2013-03-07 19:23:00,
2013-03-07 14:35:00,60.0,34.0,30.15,WNW,283,3.0,5.0,37,0.00,,,0.00,,2013-03-07 19:35:00,
2013-03-07 14:43:00,60.0,34.0,30.15,WNW,283,3.0,5.0,37,0.00,,,0.00,,2013-03-07 19:43:00,
2013-03-07 14:53:00,60.0,33.0,30.15,NE,41,4.0,5.0,36,0.00,,,0.00,,2013-03-07 19:53:00,
2013-03-07 15:02:00,60.0,34.0,30.15,NNW,330,2.0,5.0,37,0.00,,,0.00,,2013-03-07 20:02:00,
2013-03-07 15:13:00,60.0,34.0,30.15,NNW,330,2.0,5.0,37,0.00,,,0.00,,2013-03-07 20:13:00,
2013-03-07 15:22:00,61.0,33.0,30.15,WNW,297,3.0,8.0,35,0.00,,,0.00,,2013-03-07 20:22:00,
2013-03-07 15:43:00,61.0,35.0,30.14,SSW,193,2.0,4.0,37,0.00,,,0.00,,2013-03-07 20:43:00,
2013-03-07 15:54:00,61.0,35.0,30.14,NNW,339,1.0,3.0,37,0.00,,,0.00,,2013-03-07 20:54:00,
2013-03-07 16:03:00,61.0,33.0,30.14,WSW,257,4.0,6.0,35,0.00,,,0.00,,2013-03-07 21:03:00,
2013-03-07 16:12:00,61.0,33.0,30.14,WSW,257,4.0,6.0,35,0.00,,,0.00,,2013-03-07 21:12:00,
2013-03-07 16:23:00,60.0,32.0,30.14,WNW,301,1.0,6.0,35,0.00,,,0.00,,2013-03-07 21:23:00,
2013-03-07 16:33:00,60.0,34.0,30.14,WNW,287,2.0,8.0,37,0.00,,,0.00,,2013-03-07 21:33:00,
2013-03-07 16:43:00,60.0,34.0,30.14,WNW,287,2.0,8.0,37,0.00,,,0.00,,2013-03-07 21:43:00,
2013-03-07 16:53:00,59.0,32.0,30.13,South,180,1.0,7.0,36,0.00,,,0.00,,2013-03-07 21:53:00,
2013-03-07 17:02:00,59.0,33.0,30.14,NNW,334,2.0,3.0,38,0.00,,,0.00,,2013-03-07 22:02:00,
2013-03-07 17:12:00,59.0,33.0,30.14,NNW,334,2.0,3.0,38,0.00,,,0.00,,2013-03-07 22:12:00,
2013-03-07 17:23:00,58.0,33.0,30.14,NNE,25,1.0,3.0,39,0.00,,,0.00,,2013-03-07 22:23:00,
2013-03-07 17:32:00,58.0,34.0,30.14,NW,308,0.0,2.0,40,0.00,,,0.00,,2013-03-07 22:32:00,
2013-03-07 17:43:00,58.0,34.0,30.14,NW,308,0.0,2.0,40,0.00,,,0.00,,2013-03-07 22:43:00,
2013-03-07 17:54:00,58.0,35.0,30.14,SW,225,0.0,3.0,42,0.00,,,0.00,,2013-03-07 22:54:00,
2013-03-07 18:03:00,56.0,36.0,30.15,SSE,166,0.0,0.0,47,0.00,,,0.00,,2013-03-07 23:03:00,
2013-03-07 18:13:00,56.0,36.0,30.15,SSE,166,0.0,0.0,47,0.00,,,0.00,,2013-03-07 23:13:00,
2013-03-07 18:22:00,55.0,36.0,30.15,SSE,166,0.0,0.0,48,0.00,,,0.00,,2013-03-07 23:22:00,
2013-03-07 18:34:00,54.0,36.0,30.16,SSE,166,0.0,0.0,50,0.00,,,0.00,,2013-03-07 23:34:00,
2013-03-07 18:54:00,52.0,34.0,30.17,SSE,167,0.0,0.0,51,0.00,,,0.00,,2013-03-07 23:54:00,
2013-03-07 19:04:00,51.0,35.0,30.17,SSE,166,0.0,0.0,54,0.00,,,0.00,,2013-03-08 00:04:00,
2013-03-07 19:13:00,51.0,35.0,30.17,SSE,166,0.0,0.0,54,0.00,,,0.00,,2013-03-08 00:13:00,
2013-03-07 19:23:00,49.0,37.0,30.18,SSE,167,0.0,0.0,62,0.00,,,0.00,,2013-03-08 00:23:00,
2013-03-07 19:34:00,47.0,36.0,30.19,SSE,166,0.0,0.0,65,0.00,,,0.00,,2013-03-08 00:34:00,
2013-03-07 19:44:00,47.0,36.0,30.19,SSE,166,0.0,0.0,65,0.00,,,0.00,,2013-03-08 00:44:00,
2013-03-07 19:54:00,45.0,35.0,30.19,SSE,166,0.0,0.0,69,0.00,,,0.00,,2013-03-08 00:54:00,
2013-03-07 20:02:00,44.0,36.0,30.19,SSE,166,0.0,0.0,72,0.00,,,0.00,,2013-03-08 01:02:00,
2013-03-07 20:11:00,44.0,36.0,30.19,SSE,166,0.0,0.0,72,0.00,,,0.00,,2013-03-08 01:11:00,
2013-03-07 20:22:00,43.0,35.0,30.19,SSE,166,0.0,0.0,74,0.00,,,0.00,,2013-03-08 01:22:00,
2013-03-07 20:33:00,42.0,35.0,30.19,SSE,166,0.0,0.0,76,0.00,,,0.00,,2013-03-08 01:33:00,
2013-03-07 20:42:00,42.0,35.0,30.19,SSE,166,0.0,0.0,76,0.00,,,0.00,,2013-03-08 01:42:00,
2013-03-07 20:52:00,41.0,35.0,30.20,SSE,166,0.0,0.0,78,0.00,,,0.00,,2013-03-08 01:52:00,
2013-03-07 21:01:00,40.0,34.0,30.20,SSE,166,0.0,0.0,79,0.00,,,0.00,,2013-03-08 02:01:00,
2013-03-07 21:12:00,39.0,34.0,30.20,SSE,166,0.0,0.0,82,0.00,,,0.00,,2013-03-08 02:12:00,
2013-03-07 21:22:00,39.0,34.0,30.20,SSE,166,0.0,0.0,82,0.00,,,0.00,,2013-03-08 02:22:00,
2013-03-07 21:32:00,38.0,33.0,30.21,SSE,166,0.0,0.0,82,0.00,,,0.00,,2013-03-08 02:32:00,
2013-03-07 21:42:00,38.0,33.0,30.21,SSE,166,0.0,0.0,82,0.00,,,0.00,,2013-03-08 02:42:00,
2013-03-07 21:53:00,38.0,34.0,30.21,SSE,166,0.0,0.0,84,0.00,,,0.00,,2013-03-08 02:53:00,
2013-03-07 22:12:00,37.0,33.0,30.21,SSE,166,0.0,0.0,84,0.00,,,0.00,,2013-03-08 03:12:00,
2013-03-07 22:22:00,37.0,33.0,30.22,SSE,166,0.0,0.0,85,0.00,,,0.00,,2013-03-08 03:22:00,
2013-03-07 22:32:00,36.0,32.0,30.22,SSE,166,0.0,0.0,85,0.00,,,0.00,,2013-03-08 03:32:00,
2013-03-07 22:43:00,36.0,32.0,30.22,SSE,166,0.0,0.0,85,0.00,,,0.00,,2013-03-08 03:43:00,
2013-03-07 22:53:00,36.0,32.0,30.22,SSE,167,0.0,0.0,86,0.00,,,0.00,,2013-03-08 03:53:00,
2013-03-07 23:02:00,35.0,32.0,30.23,SSE,166,0.0,0.0,87,0.00,,,0.00,,2013-03-08 04:02:00,
2013-03-07 23:11:00,35.0,32.0,30.23,SSE,166,0.0,0.0,87,0.00,,,0.00,,2013-03-08 04:11:00,
2013-03-07 23:22:00,35.0,32.0,30.23,SSE,166,0.0,0.0,88,0.00,,,0.00,,2013-03-08 04:22:00,
2013-03-07 23:32:00,34.0,31.0,30.23,SSE,166,0.0,0.0,88,0.00,,,0.00,,2013-03-08 04:32:00,
2013-03-07 23:42:00,34.0,31.0,30.23,SSE,166,0.0,0.0,88,0.00,,,0.00,,2013-03-08 04:42:00,
2013-03-07 23:52:00,34.0,31.0,30.23,SSE,166,0.0,0.0,89,0.00,,,0.00,,2013-03-08 04:52:00,